Pagrindinis puslapis
METAR-TAF:

METAR-TAF

Oro uostai :

Xiamen, Kinija

platuma: 24-29N, ilguma: 118-05E, Aukštis: 139 m

Dabartinis oras

Ataskaita buvo paskelbta 37 minutes, ne 19:00 UTC
Vėjas 10 kt iš Šiaurės/Šiaurės Rytų
Temperatūra 9°C
Drėgmė 61%
Slėgis 1029 hPa
Matomumas 10 km arba daugiau
nėra debesų žemiau 1500 m ir nėra kamuolinių lietaus debesų

METAR: ZSAM 171900Z 03005MPS CAVOK 09/02 Q1029 NOSIG

Laikas: 03:37 (19:37 UTC)

Prognozė

Ataskaita buvo paskelbta 4 valandos ir 34 minutes, ne 15:03 UTC
Prognozė galioja nuo 17 metu 18 UTC su 18 metu 18 UTC
Vėjas 10 kt iš Šiaurės/Šiaurės Rytų su gūsio iki 19 kt
Matomumas: 8000 m
Tapsmas
nuo 18 metu 05 UTC su 18 metu 06 UTC
Vėjas 12 kt iš Rytų su gūsio iki 23 kt
Tapsmas
nuo 18 metu 12 UTC su 18 metu 13 UTC
Vėjas 10 kt iš Šiaurės/Šiaurės Rytų su gūsio iki 19 kt

TAF: ZSAM 171503Z 1718/1818 03005G10MPS 8000 NSC TX16/1806Z TN07/1721Z BECMG 1805/1806 09006G12MPS BECMG 1812/1813 03005G10MPS

Orai ataskaitas ir orų prognozės (METAR, TAF).

turimą stotys yra geltonos ir raudonos taškus žemėlapyje.

Perkelti pele per norėdami pamatyti stoties vardą.

Tada spustelėkite, norėdami matyti oro stebėjimo ir prognozės.

Norėdami pakeisti žemėlapį: spustelėkite ant žalios mygtukų su juodo kryžiaus žemyn,; žalią mygtuką su brūkšneliu, jei norite nutolinti; arba žalių rodyklių gretimoms žemėlapius.


METAR-TAF: